Time;durP1;ratioP1;P1;durP2;ratioP2;P2;SDS_P1;SDS_P2;PMS_P1;PMS_P2;Temp;Humidity;BMP_temperature;BMP_pressure;BME280_temperature;BME280_humidity;BME280_pressure;Samples;Min_cycle;Max_cycle;Signal;HPM_P1;HPM_P2
2021/07/07 00:02:06;;;;;;;;;;;18.10;99.90;;;;;;4921178;29;19927;-74
2021/07/07 00:04:33;;;;;;;;;;;18.10;99.90;;;;;;4905499;29;19927;-74
2021/07/07 00:07:00;;;;;;;;;;;18.10;99.90;;;;;;4905749;29;19927;-74
2021/07/07 00:09:32;;;;;;;;;;;18.10;99.90;;;;;;4920911;29;19933;-76
2021/07/07 00:11:58;;;;;;;;;;;18.00;99.90;;;;;;4920526;29;19931;-74
2021/07/07 00:14:30;;;;;;;;;;;18.00;99.90;;;;;;4905267;29;19949;-74
2021/07/07 00:16:56;;;;;;;;;;;17.80;99.90;;;;;;4920671;29;20477;-75
2021/07/07 00:19:28;;;;;;;;;;;17.80;99.90;;;;;;4921313;29;19931;-74
2021/07/07 00:22:00;;;;;;;;;;;17.80;99.90;;;;;;4920132;29;19927;-74
2021/07/07 00:24:27;;;;;;;;;;;17.70;99.90;;;;;;4920168;29;20033;-75
2021/07/07 00:26:54;;;;;;;;;;;17.70;99.90;;;;;;4920660;29;20021;-74
2021/07/07 00:29:20;;;;;;;;;;;17.70;99.90;;;;;;4904752;29;19933;-74
2021/07/07 00:31:47;;;;;;;;;;;17.70;99.90;;;;;;4920029;29;20405;-74
2021/07/07 00:34:13;;;;;;;;;;;17.70;99.90;;;;;;4937229;29;20003;-74
2021/07/07 00:36:45;;;;;;;;;;;17.70;99.90;;;;;;4921245;29;19933;-75
2021/07/07 00:39:12;;;;;;;;;;;17.60;99.90;;;;;;4920393;29;20021;-74
2021/07/07 00:41:39;;;;;;;;;;;17.60;99.90;;;;;;4936902;29;19982;-74
2021/07/07 00:44:05;;;;;;;;;;;17.60;99.90;;;;;;4904330;29;19926;-74
2021/07/07 00:46:32;;;;;;;;;;;17.60;99.90;;;;;;4920012;29;20021;-75
2021/07/07 00:48:59;;;;;;;;;;;17.60;99.90;;;;;;4904539;29;19930;-74
2021/07/07 00:51:25;;;;;;;;;;;17.70;99.90;;;;;;4919892;29;19930;-74
2021/07/07 00:53:59;;;;;;;;;;;17.70;99.90;;;;;;4904977;29;19927;-75
2021/07/07 00:56:27;;;;;;;;;;;17.70;99.90;;;;;;4920131;29;20287;-74
2021/07/07 00:58:59;;;;;;;;;;;17.70;99.90;;;;;;4919617;29;20394;-75
2021/07/07 01:01:25;;;;;;;;;;;17.60;99.90;;;;;;4903283;29;19934;-74
2021/07/07 01:03:57;;;;;;;;;;;17.60;99.90;;;;;;4920018;29;20038;-74
2021/07/07 01:06:24;;;;;;;;;;;17.60;99.90;;;;;;4936111;29;20394;-74
2021/07/07 01:08:50;;;;;;;;;;;17.70;99.90;;;;;;4903621;29;20485;-75
2021/07/07 01:11:17;;;;;;;;;;;17.70;99.90;;;;;;4919043;29;19933;-74
2021/07/07 01:13:49;;;;;;;;;;;17.70;99.90;;;;;;4918877;29;19931;-75
2021/07/07 01:16:20;;;;;;;;;;;17.70;99.90;;;;;;4904780;29;20571;-74
2021/07/07 01:18:47;;;;;;;;;;;17.70;99.90;;;;;;4919222;29;19937;-75
2021/07/07 01:21:20;;;;;;;;;;;17.70;99.90;;;;;;4919899;29;19998;-75
2021/07/07 01:23:47;;;;;;;;;;;17.70;99.90;;;;;;4919160;29;19931;-75
2021/07/07 01:26:19;;;;;;;;;;;17.70;99.90;;;;;;4935513;29;19927;-74
2021/07/07 01:28:50;;;;;;;;;;;17.70;99.90;;;;;;4902979;29;20386;-75
2021/07/07 01:31:22;;;;;;;;;;;17.70;99.90;;;;;;4903264;29;19931;-75
2021/07/07 01:33:48;;;;;;;;;;;17.70;99.90;;;;;;4918337;29;19953;-75
2021/07/07 01:36:20;;;;;;;;;;;17.70;99.90;;;;;;4903491;29;19930;-75
2021/07/07 01:38:47;;;;;;;;;;;17.60;99.90;;;;;;4903226;29;19933;-75
2021/07/07 01:41:13;;;;;;;;;;;17.60;99.90;;;;;;4918640;29;19933;-75
2021/07/07 01:43:40;;;;;;;;;;;17.60;99.90;;;;;;4902855;29;19926;-75
2021/07/07 01:46:07;;;;;;;;;;;17.60;99.90;;;;;;4903061;29;19927;-75
2021/07/07 01:48:38;;;;;;;;;;;17.60;99.90;;;;;;4919613;29;19930;-75
2021/07/07 01:51:05;;;;;;;;;;;17.60;99.90;;;;;;4918459;29;19926;-75
2021/07/07 01:53:32;;;;;;;;;;;17.60;99.90;;;;;;4918483;29;19926;-75
2021/07/07 01:56:04;;;;;;;;;;;17.60;99.90;;;;;;4919488;29;20066;-75
2021/07/07 01:58:36;;;;;;;;;;;17.70;99.90;;;;;;4935586;29;19926;-75
2021/07/07 02:01:08;;;;;;;;;;;17.60;99.90;;;;;;4918233;29;20021;-75
2021/07/07 02:03:34;;;;;;;;;;;17.70;99.90;;;;;;4902830;29;19927;-75
2021/07/07 02:06:01;;;;;;;;;;;17.70;99.90;;;;;;4902650;29;19931;-75
2021/07/07 02:08:28;;;;;;;;;;;17.70;99.90;;;;;;4902675;29;20453;-75
2021/07/07 02:10:55;;;;;;;;;;;17.70;99.90;;;;;;4918575;29;20021;-75
2021/07/07 02:13:27;;;;;;;;;;;17.70;99.90;;;;;;4903472;29;20313;-75
2021/07/07 02:15:58;;;;;;;;;;;17.70;99.90;;;;;;4919196;29;19926;-75
2021/07/07 02:18:25;;;;;;;;;;;17.60;99.90;;;;;;4918270;29;20394;-75
2021/07/07 02:20:52;;;;;;;;;;;17.60;99.90;;;;;;4918359;29;19933;-75
2021/07/07 02:23:19;;;;;;;;;;;17.60;99.90;;;;;;4902343;29;19931;-75
2021/07/07 02:25:46;;;;;;;;;;;17.60;99.90;;;;;;4902496;29;20025;-75
2021/07/07 02:28:18;;;;;;;;;;;17.60;99.90;;;;;;4918100;29;19949;-75
2021/07/07 02:30:51;;;;;;;;;;;17.60;99.90;;;;;;4917950;29;19965;-75
2021/07/07 02:33:17;;;;;;;;;;;17.60;99.90;;;;;;4934801;29;19927;-75
2021/07/07 02:35:49;;;;;;;;;;;17.60;99.90;;;;;;4918263;29;20445;-74
2021/07/07 02:38:21;;;;;;;;;;;17.60;99.90;;;;;;4917406;29;19970;-75
2021/07/07 02:40:54;;;;;;;;;;;17.60;99.90;;;;;;4902825;29;19927;-74
2021/07/07 02:43:21;;;;;;;;;;;17.60;99.90;;;;;;4917793;29;20416;-74
2021/07/07 02:45:53;;;;;;;;;;;17.60;99.90;;;;;;4918513;29;19927;-74
2021/07/07 02:48:20;;;;;;;;;;;17.60;99.90;;;;;;4918004;29;20030;-74
2021/07/07 02:50:51;;;;;;;;;;;17.60;99.90;;;;;;4934802;29;20329;-75
2021/07/07 02:53:23;;;;;;;;;;;17.60;99.90;;;;;;4918404;29;19927;-75
2021/07/07 02:55:50;;;;;;;;;;;17.60;99.90;;;;;;4917943;29;20412;-75
2021/07/07 02:58:21;;;;;;;;;;;17.60;99.90;;;;;;4918595;29;19933;-74
2021/07/07 03:00:49;;;;;;;;;;;17.60;99.90;;;;;;4901998;29;19931;-74
2021/07/07 03:03:20;;;;;;;;;;;17.60;99.90;;;;;;4901745;29;19927;-74
2021/07/07 03:05:49;;;;;;;;;;;17.60;99.90;;;;;;4902139;29;20026;-74
2021/07/07 03:08:28;;;;;;;;;;;17.60;99.90;;;;;;4903083;29;19931;-74
2021/07/07 03:10:56;;;;;;;;;;;17.60;99.90;;;;;;4917885;29;19994;-74
2021/07/07 03:13:28;;;;;;;;;;;17.60;99.90;;;;;;4902493;29;19927;-73
2021/07/07 03:15:55;;;;;;;;;;;17.60;99.90;;;;;;4901986;29;19933;-75
2021/07/07 03:18:22;;;;;;;;;;;17.50;99.90;;;;;;4917331;29;19933;-74
2021/07/07 03:20:49;;;;;;;;;;;17.50;99.90;;;;;;4916787;29;19927;-74
2021/07/07 03:23:22;;;;;;;;;;;17.50;99.90;;;;;;4916785;29;19931;-74
2021/07/07 03:25:49;;;;;;;;;;;17.50;99.90;;;;;;4901373;29;20286;-74
2021/07/07 03:28:22;;;;;;;;;;;17.40;99.90;;;;;;4917173;29;19953;-74
2021/07/07 03:30:54;;;;;;;;;;;17.40;99.90;;;;;;4902030;29;19949;-74
2021/07/07 03:33:26;;;;;;;;;;;17.40;99.90;;;;;;4902033;29;19926;-75
2021/07/07 03:35:53;;;;;;;;;;;17.30;99.90;;;;;;4901548;29;19927;-74
2021/07/07 03:38:19;;;;;;;;;;;17.40;99.90;;;;;;4901627;29;19931;-74
2021/07/07 03:40:46;;;;;;;;;;;17.30;99.90;;;;;;4902418;29;20013;-74
2021/07/07 03:43:18;;;;;;;;;;;17.30;99.90;;;;;;4902078;29;20025;-73
2021/07/07 03:45:44;;;;;;;;;;;17.30;99.90;;;;;;4917304;29;19992;-73
2021/07/07 03:48:16;;;;;;;;;;;17.20;99.90;;;;;;4903007;29;19926;-74
2021/07/07 03:50:48;;;;;;;;;;;17.20;99.90;;;;;;4905109;29;19937;-74
2021/07/07 03:53:19;;;;;;;;;;;17.10;99.90;;;;;;4905077;29;19934;-74
2021/07/07 03:55:46;;;;;;;;;;;17.10;99.90;;;;;;4920233;29;20441;-75
2021/07/07 03:58:18;;;;;;;;;;;17.10;99.90;;;;;;4905096;29;20025;-75
2021/07/07 04:00:50;;;;;;;;;;;17.10;99.90;;;;;;4919918;29;19927;-76
2021/07/07 04:03:16;;;;;;;;;;;17.10;99.90;;;;;;4903777;29;19966;-74
2021/07/07 04:05:43;;;;;;;;;;;17.20;99.90;;;;;;4920097;29;19970;-74
2021/07/07 04:08:10;;;;;;;;;;;17.20;99.90;;;;;;4904366;29;20041;-74
2021/07/07 04:10:41;;;;;;;;;;;17.20;99.90;;;;;;4919924;29;19937;-73
2021/07/07 04:13:08;;;;;;;;;;;17.20;99.90;;;;;;4906247;29;20017;-75
2021/07/07 04:15:34;;;;;;;;;;;17.20;99.90;;;;;;4938259;29;19926;-75
2021/07/07 04:18:09;;;;;;;;;;;17.20;99.90;;;;;;4922906;29;19970;-74
2021/07/07 04:20:40;;;;;;;;;;;17.20;99.90;;;;;;4919106;29;19933;-74
2021/07/07 04:23:07;;;;;;;;;;;17.30;99.90;;;;;;4918638;29;19969;-74
2021/07/07 04:25:34;;;;;;;;;;;17.30;99.90;;;;;;4903250;29;19927;-75
2021/07/07 04:28:01;;;;;;;;;;;17.20;99.90;;;;;;4919155;29;19934;-74
2021/07/07 04:30:33;;;;;;;;;;;17.20;99.90;;;;;;4919686;29;19931;-74
2021/07/07 04:33:05;;;;;;;;;;;17.20;99.90;;;;;;4904468;29;19927;-74
2021/07/07 04:35:31;;;;;;;;;;;17.20;99.90;;;;;;4919741;29;19937;-75
2021/07/07 04:38:03;;;;;;;;;;;17.20;99.90;;;;;;4919562;29;19933;-73
2021/07/07 04:40:31;;;;;;;;;;;17.20;99.90;;;;;;4903839;29;20441;-73
2021/07/07 04:42:58;;;;;;;;;;;17.20;99.90;;;;;;4919128;29;19962;-74
2021/07/07 04:45:31;;;;;;;;;;;17.20;99.90;;;;;;4976651;23;19933;-76
2021/07/07 04:47:57;;;;;;;;;;;17.20;99.90;;;;;;4916488;29;19958;-74
2021/07/07 04:50:29;;;;;;;;;;;17.20;99.90;;;;;;4917854;29;19958;-74
2021/07/07 04:52:56;;;;;;;;;;;17.20;99.90;;;;;;4899150;29;20121;-74
2021/07/07 04:55:27;;;;;;;;;;;17.30;99.90;;;;;;4916191;29;19930;-75
2021/07/07 04:57:59;;;;;;;;;;;17.30;99.90;;;;;;4900737;29;19931;-75
2021/07/07 05:00:25;;;;;;;;;;;17.30;99.90;;;;;;4898046;29;19973;-74
2021/07/07 05:02:57;;;;;;;;;;;17.30;99.90;;;;;;4949080;29;19927;-75
2021/07/07 05:05:29;;;;;;;;;;;17.30;99.90;;;;;;4935446;29;20017;-73
2021/07/07 05:08:00;;;;;;;;;;;17.30;99.90;;;;;;4950665;29;19931;-74
2021/07/07 05:10:30;;;;;;;;;;;17.20;99.90;;;;;;4934885;29;19927;-72
2021/07/07 05:12:57;;;;;;;;;;;17.20;99.90;;;;;;4935496;29;19949;-74
2021/07/07 05:15:29;;;;;;;;;;;17.30;99.90;;;;;;4950180;29;19927;-74
2021/07/07 05:18:00;;;;;;;;;;;17.30;99.90;;;;;;4934770;29;19927;-74
2021/07/07 05:20:27;;;;;;;;;;;17.30;99.90;;;;;;4935525;29;19931;-74
2021/07/07 05:23:01;;;;;;;;;;;17.30;99.90;;;;;;4934096;29;19933;-74
2021/07/07 05:25:33;;;;;;;;;;;17.30;99.90;;;;;;4935983;29;20499;-73
2021/07/07 05:28:05;;;;;;;;;;;17.40;99.90;;;;;;4934278;29;19927;-74
2021/07/07 05:30:39;;;;;;;;;;;17.40;99.90;;;;;;4934289;29;20270;-74
2021/07/07 05:33:10;;;;;;;;;;;17.40;99.90;;;;;;4935177;29;19927;-73
2021/07/07 05:35:38;;;;;;;;;;;17.40;99.90;;;;;;4934588;29;20399;-74
2021/07/07 05:38:05;;;;;;;;;;;17.40;99.90;;;;;;4934750;29;19952;-74
2021/07/07 05:40:32;;;;;;;;;;;17.30;99.90;;;;;;4934506;29;19927;-74
2021/07/07 05:42:59;;;;;;;;;;;17.30;99.90;;;;;;4934024;29;19927;-74
2021/07/07 05:45:31;;;;;;;;;;;17.30;99.90;;;;;;4934473;29;20779;-74
2021/07/07 05:47:58;;;;;;;;;;;17.30;99.90;;;;;;4918538;29;19974;-73
2021/07/07 05:50:26;;;;;;;;;;;17.30;99.90;;;;;;4934323;29;19927;-74
2021/07/07 05:52:52;;;;;;;;;;;17.30;99.90;;;;;;4932921;29;20025;-74
2021/07/07 05:55:20;;;;;;;;;;;17.30;99.90;;;;;;4933958;29;19927;-74
2021/07/07 05:57:47;;;;;;;;;;;17.30;99.90;;;;;;4933858;29;19934;-74
2021/07/07 06:00:20;;;;;;;;;;;17.40;99.90;;;;;;4918759;29;20354;-72
2021/07/07 06:02:52;;;;;;;;;;;17.40;99.90;;;;;;4935183;29;19934;-73
2021/07/07 06:05:24;;;;;;;;;;;17.40;99.90;;;;;;4919128;29;19927;-74
2021/07/07 06:07:51;;;;;;;;;;;17.50;99.90;;;;;;4934022;29;19978;-74
2021/07/07 06:10:24;;;;;;;;;;;17.50;99.90;;;;;;4918955;29;19930;-73
2021/07/07 06:12:56;;;;;;;;;;;17.60;99.90;;;;;;4934629;29;19935;-73
2021/07/07 06:15:28;;;;;;;;;;;17.60;99.90;;;;;;4934230;29;19933;-73
2021/07/07 06:18:00;;;;;;;;;;;17.60;99.90;;;;;;4934041;29;19931;-73
2021/07/07 06:20:26;;;;;;;;;;;17.60;99.90;;;;;;4933669;29;20033;-74
2021/07/07 06:22:58;;;;;;;;;;;17.60;99.90;;;;;;4932863;29;19927;-74
2021/07/07 06:25:30;;;;;;;;;;;17.60;99.90;;;;;;4934399;29;19930;-73
2021/07/07 06:27:57;;;;;;;;;;;17.60;99.90;;;;;;4933442;29;20389;-73
2021/07/07 06:30:29;;;;;;;;;;;17.60;99.90;;;;;;4933807;29;19927;-73
2021/07/07 06:32:57;;;;;;;;;;;17.60;99.90;;;;;;4934596;29;20374;-74
2021/07/07 06:35:24;;;;;;;;;;;17.60;99.90;;;;;;4933839;29;20365;-74
2021/07/07 06:37:51;;;;;;;;;;;17.60;99.90;;;;;;4934499;29;19953;-73
2021/07/07 06:40:18;;;;;;;;;;;17.60;99.90;;;;;;4933182;29;20017;-74
2021/07/07 06:42:50;;;;;;;;;;;17.60;99.90;;;;;;4917927;29;20312;-74
2021/07/07 06:45:23;;;;;;;;;;;17.60;99.90;;;;;;4918231;29;19927;-74
2021/07/07 06:47:54;;;;;;;;;;;17.60;99.90;;;;;;4918651;29;19933;-74
2021/07/07 06:50:26;;;;;;;;;;;17.60;99.90;;;;;;4918246;29;19927;-74
2021/07/07 06:52:53;;;;;;;;;;;17.70;99.90;;;;;;4934757;29;20025;-73
2021/07/07 06:55:21;;;;;;;;;;;17.60;99.90;;;;;;4933229;29;20037;-73
2021/07/07 06:57:52;;;;;;;;;;;17.70;99.90;;;;;;4933189;29;20033;-73
2021/07/07 07:00:24;;;;;;;;;;;17.60;99.90;;;;;;4934587;29;19966;-73
2021/07/07 07:02:56;;;;;;;;;;;17.70;99.90;;;;;;4933067;29;19927;-73
2021/07/07 07:05:27;;;;;;;;;;;17.70;99.90;;;;;;4934107;29;19927;-73
2021/07/07 07:07:59;;;;;;;;;;;17.70;99.90;;;;;;4918033;29;20037;-73
2021/07/07 07:10:31;;;;;;;;;;;17.60;99.90;;;;;;4933850;29;20282;-73
2021/07/07 07:12:58;;;;;;;;;;;17.60;99.90;;;;;;4932194;29;20025;-73
2021/07/07 07:15:29;;;;;;;;;;;17.60;99.90;;;;;;4933838;29;20022;-74
2021/07/07 07:18:01;;;;;;;;;;;17.60;99.90;;;;;;4932670;29;19937;-74
2021/07/07 07:20:33;;;;;;;;;;;17.60;99.90;;;;;;4933889;29;20000;-74
2021/07/07 07:23:04;;;;;;;;;;;17.70;99.90;;;;;;4932772;29;19933;-74
2021/07/07 07:25:36;;;;;;;;;;;17.70;99.90;;;;;;4937639;29;19927;-73
2021/07/07 07:28:04;;;;;;;;;;;17.70;99.90;;;;;;4936315;29;19927;-73
2021/07/07 07:30:36;;;;;;;;;;;17.70;99.90;;;;;;4937564;29;19934;-72
2021/07/07 07:33:07;;;;;;;;;;;17.70;99.90;;;;;;4935762;29;19931;-73
2021/07/07 07:35:41;;;;;;;;;;;17.70;99.90;;;;;;4936192;29;20018;-73
2021/07/07 07:38:14;;;;;;;;;;;17.70;99.90;;;;;;4920501;29;19927;-73
2021/07/07 07:40:48;;;;;;;;;;;17.70;99.90;;;;;;4936392;29;19969;-73
2021/07/07 07:43:21;;;;;;;;;;;17.70;99.90;;;;;;4936205;29;20061;-74
2021/07/07 07:45:59;;;;;;;;;;;17.70;99.90;;;;;;4921728;29;19933;-74
2021/07/07 07:48:31;;;;;;;;;;;17.70;99.90;;;;;;4921769;29;20427;-74
2021/07/07 07:51:03;;;;;;;;;;;17.80;99.90;;;;;;4920729;29;20382;-73
2021/07/07 07:53:35;;;;;;;;;;;17.80;99.90;;;;;;4937199;29;19934;-73
2021/07/07 07:56:06;;;;;;;;;;;17.80;99.90;;;;;;4920863;29;20386;-73
2021/07/07 07:58:34;;;;;;;;;;;17.90;99.90;;;;;;4935919;29;20062;-74
2021/07/07 08:01:05;;;;;;;;;;;17.90;99.90;;;;;;4920419;29;19933;-74
2021/07/07 08:03:37;;;;;;;;;;;17.90;99.90;;;;;;4920486;29;20302;-73
2021/07/07 08:06:09;;;;;;;;;;;17.90;99.90;;;;;;4935777;29;20294;-74
2021/07/07 08:08:40;;;;;;;;;;;17.90;99.90;;;;;;4935677;29;19937;-74
2021/07/07 08:11:12;;;;;;;;;;;17.90;99.90;;;;;;4935166;29;19927;-74
2021/07/07 08:13:44;;;;;;;;;;;17.90;99.90;;;;;;4936836;29;20017;-74
2021/07/07 08:16:15;;;;;;;;;;;17.90;99.90;;;;;;4935751;29;20301;-74
2021/07/07 08:18:42;;;;;;;;;;;17.90;99.90;;;;;;4936747;29;20029;-74
2021/07/07 08:21:14;;;;;;;;;;;17.90;99.90;;;;;;4935299;29;20151;-74
2021/07/07 08:23:46;;;;;;;;;;;17.90;99.90;;;;;;4936414;29;19937;-74
2021/07/07 08:26:18;;;;;;;;;;;17.90;99.90;;;;;;4935143;29;20029;-74
2021/07/07 08:28:49;;;;;;;;;;;17.90;99.90;;;;;;4920202;29;20399;-73
2021/07/07 08:31:21;;;;;;;;;;;17.90;99.90;;;;;;4919621;29;20018;-73
2021/07/07 08:33:48;;;;;;;;;;;17.90;99.90;;;;;;4934891;29;20037;-73
2021/07/07 08:36:20;;;;;;;;;;;17.80;99.90;;;;;;4933991;29;19926;-73
2021/07/07 08:38:46;;;;;;;;;;;17.80;99.90;;;;;;4936327;29;19927;-73
2021/07/07 08:41:18;;;;;;;;;;;17.90;99.90;;;;;;4934852;29;19951;-73
2021/07/07 08:43:50;;;;;;;;;;;17.90;99.90;;;;;;4936151;29;20381;-74
2021/07/07 08:46:21;;;;;;;;;;;17.90;99.90;;;;;;4936215;29;19931;-74
2021/07/07 08:48:53;;;;;;;;;;;17.90;99.90;;;;;;4936360;29;19927;-73
2021/07/07 08:51:20;;;;;;;;;;;17.90;99.90;;;;;;4935483;29;20054;-73
2021/07/07 08:53:51;;;;;;;;;;;17.90;99.90;;;;;;4935001;29;20362;-73
2021/07/07 08:56:18;;;;;;;;;;;17.90;99.90;;;;;;4919208;29;19931;-74
2021/07/07 08:58:51;;;;;;;;;;;18.00;99.90;;;;;;4919899;29;19930;-74
2021/07/07 09:01:22;;;;;;;;;;;17.90;99.90;;;;;;4919202;29;19982;-74
2021/07/07 09:03:54;;;;;;;;;;;17.90;99.90;;;;;;4934563;29;20381;-72
2021/07/07 09:06:21;;;;;;;;;;;17.80;99.90;;;;;;4935989;29;20302;-74
2021/07/07 09:08:54;;;;;;;;;;;17.90;99.90;;;;;;4936111;29;20030;-72
2021/07/07 09:11:29;;;;;;;;;;;17.90;99.90;;;;;;4919334;29;20360;-72
2021/07/07 09:14:10;;;;;;;;;;;18.00;99.90;;;;;;4918975;29;20033;-73
2021/07/07 09:16:52;;;;;;;;;;;18.00;99.90;;;;;;4919387;29;20408;-73
2021/07/07 09:19:20;;;;;;;;;;;18.00;99.90;;;;;;4934392;29;19969;-73
2021/07/07 09:21:55;;;;;;;;;;;18.00;99.90;;;;;;4934075;29;19963;-73
2021/07/07 09:24:27;;;;;;;;;;;18.00;99.90;;;;;;4935752;29;19926;-73
2021/07/07 09:26:57;;;;;;;;;;;18.00;99.90;;;;;;4935393;29;19949;-72
2021/07/07 09:29:34;;;;;;;;;;;18.00;99.90;;;;;;4935499;29;19927;-72
2021/07/07 09:32:13;;;;;;;;;;;18.00;99.90;;;;;;4933760;29;19927;-73
2021/07/07 09:34:41;;;;;;;;;;;18.00;99.90;;;;;;4918484;29;19966;-73
2021/07/07 09:37:21;;;;;;;;;;;18.00;99.90;;;;;;4935474;29;20493;-73
2021/07/07 09:39:48;;;;;;;;;;;18.00;99.90;;;;;;4934251;29;20030;-73
2021/07/07 09:42:21;;;;;;;;;;;18.00;99.90;;;;;;4933610;29;19981;-73
2021/07/07 09:44:48;;;;;;;;;;;18.00;99.90;;;;;;4918067;29;20270;-74
2021/07/07 09:47:20;;;;;;;;;;;18.00;99.90;;;;;;4933527;29;20021;-73
2021/07/07 09:49:52;;;;;;;;;;;18.00;99.90;;;;;;4918765;29;19927;-73
2021/07/07 09:52:20;;;;;;;;;;;18.10;99.90;;;;;;4933418;29;20378;-72
2021/07/07 09:54:52;;;;;;;;;;;18.10;99.90;;;;;;4934099;29;20369;-72
2021/07/07 09:57:24;;;;;;;;;;;18.10;99.90;;;;;;4935051;29;19930;-72
2021/07/07 09:59:55;;;;;;;;;;;18.10;99.90;;;;;;4934098;29;19927;-73
2021/07/07 10:02:27;;;;;;;;;;;18.20;99.90;;;;;;4935014;29;20332;-73
2021/07/07 10:04:59;;;;;;;;;;;18.20;99.90;;;;;;4935266;29;19934;-73
2021/07/07 10:07:30;;;;;;;;;;;18.30;99.90;;;;;;4935392;29;20396;-73
2021/07/07 10:10:02;;;;;;;;;;;18.30;99.90;;;;;;4933970;29;19973;-72
2021/07/07 10:12:34;;;;;;;;;;;18.40;99.90;;;;;;4918589;29;19931;-73
2021/07/07 10:15:06;;;;;;;;;;;18.40;99.90;;;;;;4934540;29;19927;-73
2021/07/07 10:17:33;;;;;;;;;;;18.40;99.90;;;;;;4918718;29;19931;-73
2021/07/07 10:20:00;;;;;;;;;;;18.40;99.90;;;;;;4934503;29;20304;-73
2021/07/07 10:22:27;;;;;;;;;;;18.40;99.90;;;;;;4935350;29;19927;-72
2021/07/07 10:24:59;;;;;;;;;;;18.40;99.90;;;;;;4934275;29;20279;-73
2021/07/07 10:27:26;;;;;;;;;;;18.50;99.90;;;;;;4934144;29;19999;-73
2021/07/07 10:29:58;;;;;;;;;;;18.50;99.90;;;;;;4935329;29;20025;-73
2021/07/07 10:32:29;;;;;;;;;;;18.50;99.90;;;;;;4935482;29;20018;-72
2021/07/07 10:35:05;;;;;;;;;;;18.50;99.90;;;;;;4933983;29;19931;-73
2021/07/07 10:37:33;;;;;;;;;;;18.40;99.90;;;;;;4934215;29;19933;-73
2021/07/07 10:40:18;;;;;;;;;;;18.40;99.90;;;;;;4934056;29;20469;-73
2021/07/07 10:42:50;;;;;;;;;;;18.50;99.90;;;;;;4933220;29;20416;-73
2021/07/07 10:45:31;;;;;;;;;;;18.50;99.90;;;;;;4933401;29;19927;-73
2021/07/07 10:48:18;;;;;;;;;;;18.50;99.90;;;;;;4933121;29;19933;-73
2021/07/07 10:50:50;;;;;;;;;;;18.40;99.90;;;;;;4934449;29;19928;-73
2021/07/07 10:53:23;;;;;;;;;;;18.40;99.90;;;;;;4933131;29;19933;-72
2021/07/07 10:55:55;;;;;;;;;;;18.30;99.90;;;;;;4934514;29;19998;-73
2021/07/07 10:58:32;;;;;;;;;;;18.30;99.90;;;;;;4917535;29;20394;-73
2021/07/07 11:01:04;;;;;;;;;;;18.40;99.90;;;;;;4917757;29;19937;-72
2021/07/07 11:03:36;;;;;;;;;;;18.40;99.90;;;;;;4934296;29;20000;-73
2021/07/07 11:06:23;;;;;;;;;;;18.30;99.90;;;;;;4933228;29;19934;-73
2021/07/07 11:09:11;;;;;;;;;;;18.30;99.90;;;;;;4934197;29;19933;-74
2021/07/07 11:11:44;;;;;;;;;;;18.40;99.90;;;;;;4933230;29;19927;-74
2021/07/07 11:14:21;;;;;;;;;;;18.40;99.90;;;;;;4933085;29;20026;-74
2021/07/07 11:16:53;;;;;;;;;;;18.40;99.90;;;;;;4933257;29;20030;-74
2021/07/07 11:19:38;;;;;;;;;;;18.30;99.90;;;;;;4933993;29;20005;-74
2021/07/07 11:22:05;;;;;;;;;;;18.30;99.90;;;;;;4932528;29;20021;-73
2021/07/07 11:24:32;;;;;;;;;;;18.30;99.90;;;;;;4932807;29;19933;-73
2021/07/07 11:27:04;;;;;;;;;;;18.30;99.90;;;;;;4932949;29;19962;-74
2021/07/07 11:29:36;;;;;;;;;;;18.20;99.90;;;;;;4917728;29;20407;-74
2021/07/07 11:32:40;;;;;;;;;;;18.20;99.90;;;;;;4932517;29;19927;-74
2021/07/07 11:35:13;;;;;;;;;;;18.20;99.90;;;;;;4904012;29;20023;-74
2021/07/07 11:37:44;;;;;;;;;;;18.30;99.90;;;;;;4932698;29;19931;-74
2021/07/07 11:40:17;;;;;;;;;;;18.30;99.90;;;;;;4932760;29;20292;-74
2021/07/07 11:42:52;;;;;;;;;;;18.20;99.90;;;;;;4933479;29;19949;-74
2021/07/07 11:45:23;;;;;;;;;;;18.20;99.90;;;;;;4916972;29;19933;-74
2021/07/07 11:47:52;;;;;;;;;;;18.20;99.90;;;;;;4932790;29;19949;-74
2021/07/07 11:50:19;;;;;;;;;;;18.20;99.90;;;;;;4934003;29;19933;-73
2021/07/07 11:52:56;;;;;;;;;;;18.30;99.90;;;;;;4932349;29;20029;-74
2021/07/07 11:56:00;;;;;;;;;;;18.30;99.90;;;;;;4933852;29;19926;-74
2021/07/07 11:58:37;;;;;;;;;;;18.20;99.90;;;;;;4903635;29;20403;-74
2021/07/07 12:01:19;;;;;;;;;;;18.30;99.90;;;;;;4932390;29;19949;-73
2021/07/07 12:03:56;;;;;;;;;;;18.30;99.90;;;;;;4931495;29;20029;-74
2021/07/07 12:06:28;;;;;;;;;;;18.20;99.90;;;;;;4915157;29;20021;-74
2021/07/07 12:08:54;;;;;;;;;;;18.30;99.90;;;;;;4951530;28;20479;-74
2021/07/07 12:11:27;;;;;;;;;;;18.30;99.90;;;;;;4955533;29;20021;-74
2021/07/07 12:13:54;;;;;;;;;;;18.30;99.90;;;;;;4954976;28;20152;-72
2021/07/07 12:16:33;;;;;;;;;;;18.30;99.90;;;;;;4955823;29;20029;-74
2021/07/07 12:19:01;;;;;;;;;;;18.30;99.90;;;;;;4955276;28;19926;-74
2021/07/07 12:21:43;;;;;;;;;;;18.40;99.90;;;;;;4955173;29;20418;-73
2021/07/07 12:24:19;;;;;;;;;;;18.40;99.90;;;;;;4955472;28;19930;-73
2021/07/07 12:26:50;;;;;;;;;;;18.50;99.90;;;;;;4955043;29;20357;-74
2021/07/07 12:29:18;;;;;;;;;;;18.50;99.90;;;;;;4956177;28;20029;-73
2021/07/07 12:31:46;;;;;;;;;;;18.50;99.90;;;;;;4955698;28;19962;-73
2021/07/07 12:34:15;;;;;;;;;;;18.50;99.90;;;;;;4938903;29;19974;-74
2021/07/07 12:36:51;;;;;;;;;;;18.50;99.90;;;;;;4955781;28;19933;-74
2021/07/07 12:39:23;;;;;;;;;;;18.50;99.90;;;;;;4954871;29;19933;-73
2021/07/07 12:41:56;;;;;;;;;;;18.40;99.90;;;;;;4954671;29;19969;-73
2021/07/07 12:44:35;;;;;;;;;;;18.40;99.90;;;;;;4954638;28;19926;-74
2021/07/07 12:47:09;;;;;;;;;;;18.40;99.90;;;;;;4954536;29;19962;-73
2021/07/07 12:49:42;;;;;;;;;;;18.50;99.90;;;;;;4954658;29;19948;-73
2021/07/07 12:52:19;;;;;;;;;;;18.50;99.90;;;;;;4955342;28;19927;-73
2021/07/07 12:54:59;;;;;;;;;;;18.50;99.90;;;;;;4944346;28;19930;-74
2021/07/07 12:57:47;;;;;;;;;;;18.50;99.90;;;;;;4916562;29;20020;-73
2021/07/07 13:00:41;;;;;;;;;;;18.60;99.90;;;;;;4916643;29;19931;-74
2021/07/07 13:03:16;;;;;;;;;;;18.70;99.90;;;;;;4935127;29;20361;-73
2021/07/07 13:05:56;;;;;;;;;;;18.70;99.90;;;;;;4935071;29;19927;-73
2021/07/07 13:08:29;;;;;;;;;;;18.70;99.90;;;;;;4936206;29;19926;-73
2021/07/07 13:11:01;;;;;;;;;;;18.80;99.90;;;;;;4950624;28;20022;-74
2021/07/07 13:13:29;;;;;;;;;;;18.80;99.90;;;;;;4936029;29;19933;-73
2021/07/07 13:16:03;;;;;;;;;;;18.90;99.90;;;;;;4936124;29;20033;-73
2021/07/07 13:18:51;;;;;;;;;;;18.90;99.90;;;;;;4934913;29;20305;-73
2021/07/07 13:24:03;;;;;;;;;;;18.90;99.90;;;;;;4908110;29;20002;-73
2021/07/07 13:26:40;;;;;;;;;;;18.90;99.90;;;;;;4892916;29;19934;-73
2021/07/07 13:29:19;;;;;;;;;;;18.90;99.90;;;;;;4896492;29;19991;-73
2021/07/07 13:31:58;;;;;;;;;;;19.00;99.90;;;;;;4888082;29;19928;-74
2021/07/07 13:34:25;;;;;;;;;;;19.00;99.90;;;;;;4893438;29;19927;-74
2021/07/07 13:36:52;;;;;;;;;;;18.90;99.90;;;;;;4899674;29;19931;-73
2021/07/07 13:39:19;;;;;;;;;;;18.90;99.90;;;;;;4916680;29;19963;-73
2021/07/07 13:41:51;;;;;;;;;;;18.90;99.90;;;;;;4914957;29;19962;-73
2021/07/07 13:44:18;;;;;;;;;;;18.90;99.90;;;;;;4899583;29;19926;-73
2021/07/07 13:46:44;;;;;;;;;;;18.90;99.90;;;;;;4901397;29;20368;-73
2021/07/07 13:49:11;;;;;;;;;;;18.80;99.90;;;;;;4898790;29;19931;-74
2021/07/07 13:51:43;;;;;;;;;;;18.80;99.90;;;;;;4916563;29;20030;-75
2021/07/07 13:54:10;;;;;;;;;;;18.80;99.90;;;;;;4899026;29;20273;-73
2021/07/07 13:56:37;;;;;;;;;;;18.70;99.90;;;;;;4915688;29;19927;-74
2021/07/07 13:59:09;;;;;;;;;;;18.70;99.90;;;;;;4884998;29;19927;-73
2021/07/07 14:01:41;;;;;;;;;;;18.70;99.90;;;;;;4899301;29;19927;-73
2021/07/07 14:04:09;;;;;;;;;;;18.70;99.90;;;;;;4916531;29;19934;-73
2021/07/07 14:06:40;;;;;;;;;;;18.70;99.90;;;;;;4899353;29;19974;-74
2021/07/07 14:09:07;;;;;;;;;;;18.70;99.90;;;;;;4914472;29;19935;-73
2021/07/07 14:11:39;;;;;;;;;;;18.70;99.90;;;;;;4910909;29;19982;-72
2021/07/07 14:14:11;;;;;;;;;;;18.70;99.90;;;;;;4914825;29;19957;-73
2021/07/07 14:16:43;;;;;;;;;;;18.70;99.90;;;;;;4908467;29;19946;-73
2021/07/07 14:19:14;;;;;;;;;;;18.70;99.90;;;;;;4882299;29;19938;-73
2021/07/07 14:21:46;;;;;;;;;;;18.70;99.90;;;;;;4897079;29;20393;-75
2021/07/07 14:24:13;;;;;;;;;;;18.70;99.90;;;;;;4895987;29;19932;-75
2021/07/07 14:26:45;;;;;;;;;;;18.70;99.90;;;;;;4890598;29;19927;-74
2021/07/07 14:29:16;;;;;;;;;;;18.70;99.90;;;;;;4916256;29;19927;-74
2021/07/07 14:31:43;;;;;;;;;;;18.70;99.90;;;;;;4898847;29;19931;-74
2021/07/07 14:34:16;;;;;;;;;;;18.70;99.90;;;;;;4899313;29;20489;-73
2021/07/07 14:36:43;;;;;;;;;;;18.70;99.90;;;;;;4913572;29;19985;-74
2021/07/07 14:39:10;;;;;;;;;;;18.70;99.90;;;;;;4900058;29;19971;-74
2021/07/07 14:41:37;;;;;;;;;;;18.70;99.90;;;;;;4916354;29;19928;-73